Time;durP1;ratioP1;P1;durP2;ratioP2;P2;SDS_P1;SDS_P2;PMS_P1;PMS_P2;Temp;Humidity;BMP_temperature;BMP_pressure;BME280_temperature;BME280_humidity;BME280_pressure;Samples;Min_cycle;Max_cycle;Signal;HPM_P1;HPM_P2
2021/01/31 00:00:51;;;;;;;9.45;3.60;;;;;;;;;;4890583;28;20101;-79
2021/01/31 00:03:17;;;;;;;6.32;3.33;;;-4.00;99.90;;;;;;4886876;28;20109;-80
2021/01/31 00:05:39;;;;;;;;;;;-4.00;99.90;;;;;;4888958;28;20103;-80
2021/01/31 00:08:03;;;;;;;7.28;2.92;;;-3.80;99.90;;;;;;4888040;28;20095;-79
2021/01/31 00:10:27;;;;;;;9.55;3.63;;;-3.80;99.90;;;;;;4886396;28;20101;-81
2021/01/31 00:12:50;;;;;;;8.40;3.30;;;-3.80;99.90;;;;;;4887695;28;20456;-79
2021/01/31 00:15:17;;;;;;;8.18;3.58;;;-3.70;99.90;;;;;;4887786;28;20107;-80
2021/01/31 00:17:40;;;;;;;8.57;3.22;;;-3.60;99.90;;;;;;4888290;28;20104;-80
2021/01/31 00:20:05;;;;;;;11.07;3.92;;;-3.60;99.90;;;;;;4887139;28;20473;-81
2021/01/31 00:22:28;;;;;;;7.00;3.22;;;-3.50;99.90;;;;;;4888188;28;20105;-80
2021/01/31 00:24:54;;;;;;;8.05;3.10;;;-3.50;99.90;;;;;;4887222;28;20118;-80
2021/01/31 00:27:16;;;;;;;6.90;2.88;;;-3.40;99.90;;;;;;4886732;28;20108;-79
2021/01/31 00:29:39;;;;;;;9.20;3.65;;;-3.40;99.90;;;;;;4889399;28;20583;-80
2021/01/31 00:32:02;;;;;;;8.40;3.22;;;-3.40;99.90;;;;;;4886544;28;20104;-81
2021/01/31 00:34:25;;;;;;;8.48;3.83;;;-3.30;99.90;;;;;;4889388;28;20101;-81
2021/01/31 00:36:48;;;;;;;6.47;3.17;;;;;;;;;;4888292;28;20101;-80
2021/01/31 00:39:11;;;;;;;10.30;4.88;;;-3.20;99.90;;;;;;4888593;28;20100;-80
2021/01/31 00:41:35;;;;;;;8.60;3.75;;;-3.20;99.90;;;;;;4889185;28;20104;-81
2021/01/31 00:43:57;;;;;;;11.05;4.03;;;-3.20;99.90;;;;;;4889661;28;20096;-81
2021/01/31 00:46:20;;;;;;;10.15;3.70;;;-3.10;99.90;;;;;;4886772;28;20105;-81
2021/01/31 00:48:42;;;;;;;10.20;3.95;;;-3.20;99.90;;;;;;4888932;28;20089;-81
2021/01/31 00:51:06;;;;;;;8.15;3.67;;;-3.10;99.90;;;;;;4887140;28;20100;-80
2021/01/31 00:53:29;;;;;;;8.70;3.47;;;;;;;;;;4879487;28;20110;-82
2021/01/31 00:55:51;;;;;;;7.45;3.22;;;-3.10;99.90;;;;;;4886834;28;20103;-80
2021/01/31 00:58:14;;;;;;;15.55;4.45;;;-3.10;99.90;;;;;;4888087;28;20100;-80
2021/01/31 01:00:39;;;;;;;14.48;4.05;;;-3.00;99.90;;;;;;4889486;28;20099;-81
2021/01/31 01:03:02;;;;;;;;;;;-3.00;99.90;;;;;;4886821;28;20188;-81
2021/01/31 01:05:31;;;;;;;11.30;3.88;;;-3.00;99.90;;;;;;4888800;28;20064;-82
2021/01/31 01:07:55;;;;;;;11.80;4.15;;;;;;;;;;4888133;28;20088;-81
2021/01/31 01:10:20;;;;;;;7.15;3.25;;;-3.00;99.90;;;;;;4890251;28;20087;-81
2021/01/31 01:12:42;;;;;;;;;;;-3.00;99.90;;;;;;4887968;28;20105;-81
2021/01/31 01:15:07;;;;;;;9.93;3.22;;;-3.00;99.90;;;;;;4890082;28;19981;-80
2021/01/31 01:17:30;;;;;;;9.67;4.20;;;-3.00;99.90;;;;;;4885511;28;20093;-81
2021/01/31 01:19:53;;;;;;;11.27;3.97;;;-2.90;99.90;;;;;;4886871;28;20109;-81
2021/01/31 01:22:16;;;;;;;9.38;3.55;;;-2.90;99.90;;;;;;4888311;28;20093;-81
2021/01/31 01:24:39;;;;;;;9.98;3.40;;;;;;;;;;4889337;28;20569;-81
2021/01/31 01:27:02;;;;;;;12.75;4.47;;;-2.90;99.90;;;;;;4887419;28;20524;-81
2021/01/31 01:29:25;;;;;;;11.25;3.97;;;-2.90;99.90;;;;;;4888134;28;20560;-81
2021/01/31 01:31:48;;;;;;;8.18;3.40;;;-2.80;99.90;;;;;;4887544;28;20111;-81
2021/01/31 01:34:11;;;;;;;10.18;4.05;;;-2.80;99.90;;;;;;4886654;28;20105;-82
2021/01/31 01:36:34;;;;;;;7.85;3.72;;;-2.80;99.90;;;;;;4886525;28;20105;-81
2021/01/31 01:38:57;;;;;;;9.18;4.32;;;-2.80;99.90;;;;;;4888088;28;20498;-81
2021/01/31 01:41:21;;;;;;;10.40;4.35;;;-2.80;99.90;;;;;;4886817;28;20103;-82
2021/01/31 01:43:43;;;;;;;10.85;4.10;;;-2.70;99.90;;;;;;4886495;28;20397;-81
2021/01/31 01:46:34;;;;;;;10.05;3.97;;;-2.70;99.90;;;;;;4888592;28;20109;-82
2021/01/31 01:49:02;;;;;;;10.05;3.95;;;-2.70;99.90;;;;;;4873370;28;20182;-82
2021/01/31 01:51:31;;;;;;;7.07;3.60;;;-2.70;99.90;;;;;;4875024;28;20104;-82
2021/01/31 01:53:53;;;;;;;8.73;3.78;;;-2.70;99.90;;;;;;4880642;28;20171;-81
2021/01/31 01:56:26;;;;;;;13.88;4.10;;;-2.70;99.90;;;;;;4887934;28;20109;-81
2021/01/31 01:58:49;;;;;;;6.97;3.38;;;-2.70;99.90;;;;;;4885944;28;20092;-82
2021/01/31 02:01:12;;;;;;;10.75;4.07;;;-2.70;99.90;;;;;;4886046;28;20101;-81
2021/01/31 02:03:40;;;;;;;9.65;4.53;;;-2.70;99.90;;;;;;4886597;28;20097;-81
2021/01/31 02:06:08;;;;;;;10.98;4.10;;;-2.70;99.90;;;;;;4886454;28;20548;-83
2021/01/31 02:08:31;;;;;;;6.57;3.15;;;-2.60;99.90;;;;;;4887261;28;20131;-82
2021/01/31 02:10:53;;;;;;;9.38;3.75;;;-2.60;99.90;;;;;;4886283;28;20180;-82
2021/01/31 02:13:17;;;;;;;11.35;4.10;;;-2.60;99.90;;;;;;4886920;28;20097;-82
2021/01/31 02:15:40;;;;;;;6.97;3.40;;;-2.60;99.90;;;;;;4887921;28;20474;-82
2021/01/31 02:18:14;;;;;;;14.05;4.03;;;-2.60;99.90;;;;;;4886996;28;20097;-82
2021/01/31 02:21:25;;;;;;;9.43;4.28;;;-2.60;99.90;;;;;;4888518;28;20093;-82
2021/01/31 02:24:19;;;;;;;10.60;3.80;;;-2.60;99.90;;;;;;4887322;28;20514;-81
2021/01/31 02:27:01;;;;;;;8.52;3.95;;;-2.60;99.90;;;;;;4885190;28;20548;-82
2021/01/31 02:29:47;;;;;;;13.55;5.15;;;-2.60;99.90;;;;;;4885465;28;20112;-81
2021/01/31 02:32:46;;;;;;;10.73;4.32;;;-2.50;99.90;;;;;;4886826;28;20461;-81
2021/01/31 02:35:13;;;;;;;15.27;4.38;;;-2.50;99.90;;;;;;4873141;28;20107;-82
2021/01/31 02:37:42;;;;;;;11.48;5.13;;;-2.50;99.90;;;;;;4885307;28;20095;-82
2021/01/31 02:40:11;;;;;;;8.45;3.17;;;-2.50;99.90;;;;;;4883705;28;20571;-83
2021/01/31 02:42:40;;;;;;;15.35;4.90;;;-2.50;99.90;;;;;;4885796;28;20457;-82
2021/01/31 02:45:15;;;;;;;10.43;4.63;;;-2.50;99.90;;;;;;4883856;28;20263;-82
2021/01/31 02:47:42;;;;;;;9.57;3.92;;;-2.60;99.90;;;;;;4884882;28;20556;-80
2021/01/31 02:50:11;;;;;;;9.07;4.05;;;-2.50;99.90;;;;;;4885462;28;20089;-82
2021/01/31 02:52:41;;;;;;;12.60;5.13;;;-2.50;99.90;;;;;;4886718;28;20097;-83
2021/01/31 02:55:10;;;;;;;13.57;4.93;;;-2.50;99.90;;;;;;4886013;28;20110;-81
2021/01/31 02:57:37;;;;;;;11.50;4.95;;;-2.50;99.90;;;;;;4884734;28;20218;-83
2021/01/31 03:00:08;;;;;;;13.10;4.65;;;-2.50;99.90;;;;;;4887430;28;20467;-82
2021/01/31 03:02:38;;;;;;;12.50;4.10;;;-2.60;99.90;;;;;;4871166;28;20189;-82
2021/01/31 03:05:04;;;;;;;15.63;4.80;;;-2.60;99.90;;;;;;4872582;28;20147;-82
2021/01/31 03:07:32;;;;;;;9.52;4.20;;;-2.60;99.90;;;;;;4867923;28;20098;-82
2021/01/31 03:10:01;;;;;;;15.63;5.15;;;-2.70;99.90;;;;;;4876870;28;20096;-82
2021/01/31 03:12:28;;;;;;;11.63;4.38;;;-2.70;99.90;;;;;;4885972;28;20456;-82
2021/01/31 03:14:58;;;;;;;12.98;5.85;;;-2.70;99.90;;;;;;4885961;28;20093;-81
2021/01/31 03:17:26;;;;;;;13.57;5.47;;;-2.70;99.90;;;;;;4887105;28;20127;-82
2021/01/31 03:19:57;;;;;;;14.82;5.32;;;-2.70;99.90;;;;;;4884749;28;20087;-81
2021/01/31 03:22:26;;;;;;;13.32;4.90;;;-2.20;99.90;;;;;;4885712;28;20112;-82
2021/01/31 03:24:54;;;;;;;15.50;6.07;;;-2.60;99.90;;;;;;4888783;28;20529;-81
2021/01/31 03:27:26;;;;;;;12.82;4.95;;;-2.60;99.90;;;;;;4881488;28;20105;-83
2021/01/31 03:29:49;;;;;;;10.55;5.10;;;-2.50;99.90;;;;;;4879788;28;20147;-82
2021/01/31 03:32:18;;;;;;;10.32;5.00;;;-2.50;99.90;;;;;;4888727;28;20093;-83
2021/01/31 03:34:46;;;;;;;13.02;5.38;;;-2.50;99.90;;;;;;4890086;28;20163;-83
2021/01/31 03:37:11;;;;;;;14.27;5.28;;;-2.50;99.90;;;;;;4889391;28;20548;-82
2021/01/31 03:39:36;;;;;;;12.73;5.10;;;-2.50;99.90;;;;;;4886922;28;20090;-82
2021/01/31 03:41:59;;;;;;;13.02;5.55;;;-2.50;99.90;;;;;;4890315;28;20105;-83
2021/01/31 03:44:24;;;;;;;12.18;5.07;;;-2.50;99.90;;;;;;4887792;28;20108;-83
2021/01/31 03:46:53;;;;;;;9.98;4.68;;;-2.50;99.90;;;;;;4882219;28;20106;-82
2021/01/31 03:49:22;;;;;;;13.82;5.15;;;-2.50;99.90;;;;;;4889945;28;20112;-82
2021/01/31 03:51:46;;;;;;;14.57;5.50;;;-2.50;99.90;;;;;;4890330;28;20121;-82
2021/01/31 03:54:10;;;;;;;15.68;5.00;;;-2.50;99.90;;;;;;4888954;28;20102;-83
2021/01/31 03:56:37;;;;;;;14.15;5.10;;;-2.50;99.90;;;;;;4889612;28;20108;-83
2021/01/31 03:59:01;;;;;;;12.93;5.78;;;-2.50;99.90;;;;;;4888472;28;20097;-82
2021/01/31 04:01:27;;;;;;;11.45;5.28;;;-2.50;99.90;;;;;;4889972;28;20111;-82
2021/01/31 04:03:55;;;;;;;15.57;5.78;;;-2.50;99.90;;;;;;4889607;28;20105;-83
2021/01/31 04:06:22;;;;;;;16.75;6.03;;;-2.50;99.90;;;;;;4881878;28;20098;-82
2021/01/31 04:08:48;;;;;;;15.32;5.70;;;-2.50;99.90;;;;;;4887257;28;20440;-82
2021/01/31 04:11:11;;;;;;;14.05;6.05;;;-2.50;99.90;;;;;;4889263;28;20491;-82
2021/01/31 04:13:37;;;;;;;10.98;4.72;;;-2.60;99.90;;;;;;4889936;28;20118;-83
2021/01/31 04:16:02;;;;;;;15.93;6.38;;;-2.60;99.90;;;;;;4887822;28;20101;-82
2021/01/31 04:18:25;;;;;;;15.95;5.57;;;-2.60;99.90;;;;;;4889116;28;20106;-81
2021/01/31 04:20:49;;;;;;;11.90;5.13;;;-2.60;99.90;;;;;;4887732;28;20445;-82
2021/01/31 04:23:12;;;;;;;18.20;5.38;;;-2.60;99.90;;;;;;4889046;28;20101;-83
2021/01/31 04:25:35;;;;;;;14.80;5.72;;;-2.60;99.90;;;;;;4889216;28;20108;-83
2021/01/31 04:27:58;;;;;;;15.88;5.68;;;-2.60;99.90;;;;;;4888759;28;20099;-84
2021/01/31 04:30:22;;;;;;;16.58;6.32;;;-2.60;99.90;;;;;;4887923;28;20136;-82
2021/01/31 04:32:45;;;;;;;16.05;5.85;;;-2.60;99.90;;;;;;4887286;28;20242;-83
2021/01/31 04:35:10;;;;;;;14.00;5.53;;;-2.60;99.90;;;;;;4886766;28;20557;-81
2021/01/31 04:37:33;;;;;;;21.05;7.95;;;-2.60;99.90;;;;;;4889018;28;20100;-81
2021/01/31 04:39:55;;;;;;;15.98;5.80;;;-2.60;99.90;;;;;;4887392;28;20154;-80
2021/01/31 04:42:20;;;;;;;17.67;6.82;;;-1.90;99.90;;;;;;4889031;28;20526;-80
2021/01/31 04:44:43;;;;;;;11.77;4.20;;;-2.70;99.90;;;;;;4889382;28;20094;-80
2021/01/31 04:47:12;;;;;;;14.93;6.10;;;-2.60;99.90;;;;;;4888762;28;20569;-81
2021/01/31 04:50:01;;;;;;;20.42;6.57;;;-2.60;99.90;;;;;;4888477;28;20101;-80
2021/01/31 04:52:41;;;;;;;13.95;5.72;;;-2.60;99.90;;;;;;4872614;28;20146;-79
2021/01/31 04:55:33;;;;;;;16.17;7.07;;;-2.60;99.90;;;;;;4875927;28;20101;-81
2021/01/31 04:58:05;;;;;;;16.90;6.03;;;-2.60;99.90;;;;;;4884870;28;20520;-82
2021/01/31 05:00:30;;;;;;;14.55;5.65;;;-2.50;99.90;;;;;;4891316;28;20095;-83
2021/01/31 05:02:58;;;;;;;13.23;5.47;;;-2.50;99.90;;;;;;4888741;28;23536;-82
2021/01/31 05:05:25;;;;;;;19.80;6.95;;;-2.50;99.90;;;;;;4888217;28;20463;-82
2021/01/31 05:07:53;;;;;;;12.27;5.80;;;-2.50;99.90;;;;;;4887218;28;20093;-83
2021/01/31 05:10:16;;;;;;;20.98;5.72;;;-2.50;99.90;;;;;;4887803;28;20161;-83
2021/01/31 05:12:43;;;;;;;14.48;6.22;;;-2.50;99.90;;;;;;4887353;28;20096;-82
2021/01/31 05:15:22;;;;;;;16.67;6.00;;;-2.50;99.90;;;;;;4885374;28;20100;-84
2021/01/31 05:17:47;;;;;;;12.00;5.25;;;-2.50;99.90;;;;;;4885438;28;20108;-83
2021/01/31 05:20:12;;;;;;;13.10;5.70;;;-2.50;99.90;;;;;;4886450;28;20509;-80
2021/01/31 05:22:41;;;;;;;17.38;6.18;;;-2.50;99.90;;;;;;4887115;28;20105;-81
2021/01/31 05:25:08;;;;;;;14.90;6.68;;;-2.50;99.90;;;;;;4887505;28;20147;-81
2021/01/31 05:27:34;;;;;;;11.18;5.25;;;-2.50;99.90;;;;;;4887691;28;20112;-81
2021/01/31 05:29:58;;;;;;;15.10;6.10;;;-2.50;99.90;;;;;;4886609;28;20145;-80
2021/01/31 05:32:20;;;;;;;16.77;7.13;;;-2.50;99.90;;;;;;4886313;28;20099;-80
2021/01/31 05:34:46;;;;;;;18.25;6.85;;;-2.50;99.90;;;;;;4888573;28;20101;-81
2021/01/31 05:37:11;;;;;;;18.65;6.85;;;-2.50;99.90;;;;;;4886533;28;20101;-81
2021/01/31 05:39:45;;;;;;;18.38;6.60;;;-2.60;99.90;;;;;;4888152;28;20617;-81
2021/01/31 05:42:13;;;;;;;20.35;6.03;;;-2.60;99.90;;;;;;4886416;28;20159;-80
2021/01/31 05:44:36;;;;;;;16.92;7.07;;;;;;;;;;4880282;28;20090;-80
2021/01/31 05:47:01;;;;;;;13.65;6.97;;;-2.60;99.90;;;;;;4899402;28;20164;-80
2021/01/31 05:49:39;;;;;;;13.45;5.97;;;-2.70;99.90;;;;;;4886953;28;20108;-80
2021/01/31 05:52:03;;;;;;;16.80;6.45;;;-2.70;99.90;;;;;;4885654;28;20101;-82
2021/01/31 05:54:29;;;;;;;12.85;6.18;;;-2.70;99.90;;;;;;4888420;28;20162;-80
2021/01/31 05:56:52;;;;;;;15.77;5.20;;;-2.70;99.90;;;;;;4886877;28;20091;-81
2021/01/31 05:59:16;;;;;;;13.32;5.85;;;-2.70;99.90;;;;;;4883991;28;20171;-81
2021/01/31 06:02:01;;;;;;;15.85;6.40;;;-2.80;99.90;;;;;;4886984;28;20096;-80
2021/01/31 06:04:25;;;;;;;16.08;5.85;;;-2.80;99.90;;;;;;4887853;28;20150;-81
2021/01/31 06:06:48;;;;;;;16.40;5.93;;;-2.80;99.90;;;;;;4878385;28;20092;-80
2021/01/31 06:09:15;;;;;;;14.13;5.65;;;-2.80;99.90;;;;;;4886733;28;20105;-81
2021/01/31 06:11:37;;;;;;;16.42;6.43;;;-2.80;99.90;;;;;;4886603;28;20098;-80
2021/01/31 06:14:06;;;;;;;17.48;6.68;;;-2.80;99.90;;;;;;4886397;28;20445;-81
2021/01/31 06:16:32;;;;;;;18.77;6.65;;;-2.80;99.90;;;;;;4886876;28;20105;-80
2021/01/31 06:19:01;;;;;;;15.35;5.85;;;-2.80;99.90;;;;;;4884126;28;20093;-80
2021/01/31 06:21:37;;;;;;;18.85;6.68;;;-2.80;99.90;;;;;;4887276;28;20615;-81
2021/01/31 06:24:00;;;;;;;12.68;5.38;;;;;;;;;;4885120;28;21295;-80
2021/01/31 06:26:24;;;;;;;15.38;5.50;;;-2.90;99.90;;;;;;4883478;28;20135;-80
2021/01/31 06:28:48;;;;;;;12.32;4.88;;;-2.90;99.90;;;;;;4874274;28;20197;-80
2021/01/31 06:31:25;;;;;;;14.90;5.63;;;-2.90;99.90;;;;;;4888225;28;20107;-81
2021/01/31 06:33:49;;;;;;;10.65;5.30;;;-2.90;99.90;;;;;;4886376;28;20566;-83
2021/01/31 06:36:26;;;;;;;10.80;5.10;;;-0.90;99.90;;;;;;4886349;28;20216;-81
2021/01/31 06:39:02;;;;;;;19.75;6.15;;;-2.90;99.90;;;;;;4870273;28;20096;-82
2021/01/31 06:41:47;;;;;;;11.38;4.65;;;-2.90;99.90;;;;;;4882534;28;20097;-84
2021/01/31 06:44:18;;;;;;;12.43;5.25;;;-2.90;99.90;;;;;;4884752;28;20101;-83
2021/01/31 06:46:48;;;;;;;9.82;4.07;;;-2.90;99.90;;;;;;4885853;28;20098;-83
2021/01/31 06:49:26;;;;;;;15.77;5.93;;;-2.90;99.90;;;;;;4885784;28;20089;-82
2021/01/31 06:52:16;;;;;;;13.75;5.57;;;-2.90;99.90;;;;;;4873104;28;24190;-81
2021/01/31 06:55:02;;;;;;;19.92;6.20;;;-2.90;99.90;;;;;;4881590;28;20661;-82
2021/01/31 06:57:56;;;;;;;12.95;4.57;;;-2.80;99.90;;;;;;4885351;28;20093;-82
2021/01/31 07:00:43;;;;;;;12.55;5.50;;;-2.80;99.90;;;;;;4886054;28;20121;-82
2021/01/31 07:03:18;;;;;;;11.32;4.90;;;-2.80;99.90;;;;;;4886413;28;20097;-82
2021/01/31 07:06:14;;;;;;;13.85;5.13;;;-2.80;99.90;;;;;;4888768;28;20109;-83
2021/01/31 07:08:53;;;;;;;12.57;5.07;;;-2.70;99.90;;;;;;4881780;28;21037;-84
2021/01/31 07:11:37;;;;;;;12.38;4.90;;;-2.70;99.90;;;;;;4891740;28;20102;-83
2021/01/31 07:14:21;;;;;;;13.27;4.85;;;-2.80;99.90;;;;;;4888516;28;20482;-83
2021/01/31 07:16:49;;;;;;;11.68;4.70;;;-2.70;99.90;;;;;;4851165;28;20534;-82
2021/01/31 07:19:19;;;;;;;13.75;4.07;;;-2.70;99.90;;;;;;4879721;28;23623;-84
2021/01/31 07:21:54;;;;;;;13.38;4.75;;;-2.60;99.90;;;;;;4879571;28;20090;-82
2021/01/31 07:24:22;;;;;;;13.45;4.13;;;-2.60;99.90;;;;;;4876627;28;20105;-83
2021/01/31 07:26:53;;;;;;;16.40;6.03;;;-2.60;99.90;;;;;;4887894;28;20094;-82
2021/01/31 07:29:24;;;;;;;14.25;5.70;;;-2.60;99.90;;;;;;4887974;28;20105;-82
2021/01/31 07:31:49;;;;;;;11.77;4.93;;;-2.60;99.90;;;;;;4889722;28;20103;-84
2021/01/31 07:34:18;;;;;;;15.32;5.13;;;-2.60;99.90;;;;;;4887767;28;20458;-82
2021/01/31 07:36:55;;;;;;;10.95;4.55;;;-2.50;99.90;;;;;;4887939;28;20119;-82
2021/01/31 07:39:24;;;;;;;19.08;5.47;;;-2.50;99.90;;;;;;4887566;28;20091;-82
2021/01/31 07:41:53;;;;;;;12.43;5.50;;;-2.40;99.90;;;;;;4888997;28;20088;-83
2021/01/31 07:44:18;;;;;;;12.77;5.28;;;-2.40;99.90;;;;;;4889341;28;20466;-83
2021/01/31 07:46:41;;;;;;;15.10;5.90;;;-2.40;99.90;;;;;;4888325;28;20102;-83
2021/01/31 07:49:05;;;;;;;12.15;5.18;;;-2.30;99.90;;;;;;4880523;28;20505;-82
2021/01/31 07:52:07;;;;;;;13.98;5.32;;;-2.30;99.90;;;;;;4890724;28;20599;-82
2021/01/31 07:54:34;;;;;;;13.13;4.63;;;-2.30;99.90;;;;;;4886817;28;20097;-84
2021/01/31 07:57:23;;;;;;;13.90;5.25;;;-2.30;99.90;;;;;;4884333;28;20107;-82
2021/01/31 07:59:46;;;;;;;17.52;5.85;;;-2.30;99.90;;;;;;4887788;28;20188;-83
2021/01/31 08:02:10;;;;;;;11.68;4.80;;;-2.20;99.90;;;;;;4889341;28;20105;-82
2021/01/31 08:04:48;;;;;;;13.13;5.53;;;-2.30;99.90;;;;;;4887240;28;20605;-83
2021/01/31 08:07:12;;;;;;;8.77;3.90;;;;;;;;;;4887120;28;20108;-82
2021/01/31 08:09:55;;;;;;;19.08;5.40;;;-2.20;99.90;;;;;;4889717;28;20099;-82
2021/01/31 08:12:18;;;;;;;14.48;5.93;;;-2.20;99.90;;;;;;4887322;28;20146;-82
2021/01/31 08:15:10;;;;;;;20.70;5.28;;;-2.20;99.90;;;;;;4886512;28;20108;-83
2021/01/31 08:18:11;;;;;;;10.35;4.05;;;-2.10;99.90;;;;;;4887536;28;20138;-83
2021/01/31 08:20:46;;;;;;;11.07;4.50;;;-2.00;99.90;;;;;;4827581;28;20551;-84
2021/01/31 08:23:45;;;;;;;11.17;5.03;;;-2.00;99.90;;;;;;4869613;28;20111;-82
2021/01/31 08:26:08;;;;;;;15.57;5.70;;;-1.90;99.90;;;;;;4882911;28;20133;-82
2021/01/31 08:28:32;;;;;;;11.48;5.15;;;-1.80;99.90;;;;;;4881842;28;20097;-82
2021/01/31 08:31:13;;;;;;;12.98;4.82;;;-1.70;99.90;;;;;;4889554;28;20101;-82
2021/01/31 08:33:38;;;;;;;12.15;4.53;;;-1.60;99.90;;;;;;4887905;28;20110;-82
2021/01/31 08:36:04;;;;;;;11.07;4.80;;;-1.60;99.90;;;;;;4888673;28;20134;-84
2021/01/31 08:38:40;;;;;;;15.45;5.72;;;-1.60;99.90;;;;;;4887622;28;20092;-82
2021/01/31 08:41:19;;;;;;;;;;;-1.60;99.90;;;;;;4887214;28;20502;-84
2021/01/31 08:43:45;;;;;;;9.43;3.33;;;-1.60;99.90;;;;;;4886985;28;19979;-83
2021/01/31 08:46:09;;;;;;;;;;;-1.60;99.90;;;;;;4881466;28;20089;-84
2021/01/31 08:48:32;;;;;;;11.18;4.60;;;-1.60;99.90;;;;;;4888913;28;19972;-83
2021/01/31 08:51:06;;;;;;;11.82;5.65;;;-1.60;99.90;;;;;;4887444;28;20096;-81
2021/01/31 08:53:29;;;;;;;16.15;5.85;;;-1.60;99.90;;;;;;4888091;28;20099;-83
2021/01/31 08:55:52;;;;;;;11.00;4.40;;;-1.60;99.90;;;;;;4887292;28;20106;-84
2021/01/31 08:58:15;;;;;;;15.70;5.22;;;-1.50;99.90;;;;;;4888272;28;20094;-84
2021/01/31 09:00:45;;;;;;;13.77;4.72;;;-1.40;99.90;;;;;;4870779;28;20111;-84
2021/01/31 09:03:17;;;;;;;10.45;4.30;;;-1.30;99.90;;;;;;4847306;28;20543;-84
2021/01/31 09:05:55;;;;;;;12.60;4.68;;;-1.30;99.90;;;;;;4815160;28;20590;-82
2021/01/31 09:08:39;;;;;;;11.63;4.78;;;-1.30;99.90;;;;;;4824986;28;20178;-84
2021/01/31 09:11:16;;;;;;;9.48;4.05;;;-1.20;99.90;;;;;;4824727;28;20091;-83
2021/01/31 09:14:34;;;;;;;8.48;4.03;;;-1.20;99.90;;;;;;4825772;28;20091;-85
2021/01/31 09:17:51;;;;;;;12.40;4.10;;;-1.20;99.90;;;;;;4815374;28;23673;-84
2021/01/31 09:40:51;;;;;;;10.10;3.58;;;-0.70;99.90;;;;;;4846405;28;20558;-84
2021/01/31 09:43:48;;;;;;;7.88;2.53;;;-0.70;99.90;;;;;;4836491;28;20589;-82
2021/01/31 09:49:50;;;;;;;7.40;3.60;;;-0.70;99.90;;;;;;4825273;28;20140;-84
2021/01/31 10:06:21;;;;;;;6.10;2.88;;;-0.50;99.90;;;;;;4824268;28;20440;-84
2021/01/31 10:09:50;;;;;;;14.40;3.20;;;-0.50;99.90;;;;;;4840055;28;20174;-84
2021/01/31 10:13:06;;;;;;;8.13;2.70;;;-0.30;99.90;;;;;;4816976;28;20573;-85
2021/01/31 10:16:09;;;;;;;9.95;3.80;;;-0.30;99.90;;;;;;4825906;28;20086;-85
2021/01/31 10:19:08;;;;;;;7.00;3.53;;;-0.30;99.90;;;;;;4831094;28;20167;-86
2021/01/31 10:21:40;;;;;;;7.63;3.65;;;-0.20;99.90;;;;;;4828575;28;20126;-81
2021/01/31 10:27:38;;;;;;;9.07;2.95;;;-0.30;99.90;;;;;;4807682;28;20470;-82
2021/01/31 10:30:31;;;;;;;8.82;2.90;;;-0.40;99.90;;;;;;4820835;28;20513;-84
2021/01/31 10:33:44;;;;;;;5.32;2.67;;;-0.40;99.90;;;;;;4816443;28;20191;-81
2021/01/31 10:37:06;;;;;;;5.68;2.47;;;-0.40;99.90;;;;;;4823142;28;20091;-84
2021/01/31 10:39:47;;;;;;;7.00;3.20;;;-0.50;99.90;;;;;;4832070;28;20118;-82
2021/01/31 10:42:21;;;;;;;6.88;2.70;;;-0.50;99.90;;;;;;4820028;28;20099;-83
2021/01/31 10:44:48;;;;;;;6.55;2.70;;;-0.40;99.90;;;;;;4827763;28;20115;-83
2021/01/31 10:47:13;;;;;;;6.63;3.03;;;-0.50;99.90;;;;;;4791417;28;20107;-83
2021/01/31 10:49:35;;;;;;;6.13;2.33;;;-0.50;99.90;;;;;;4879200;28;20129;-83
2021/01/31 10:51:59;;;;;;;6.90;2.97;;;;;;;;;;4887955;28;20099;-83
2021/01/31 10:54:25;;;;;;;9.05;3.63;;;-0.50;99.90;;;;;;4892138;28;20441;-84
2021/01/31 10:56:47;;;;;;;5.85;2.50;;;-0.60;99.90;;;;;;4889356;28;20107;-83
2021/01/31 10:59:10;;;;;;;10.25;2.97;;;-0.60;99.90;;;;;;4890682;28;20443;-83
2021/01/31 11:01:33;;;;;;;7.32;2.70;;;-0.60;99.90;;;;;;4888944;28;20543;-83
2021/01/31 11:04:02;;;;;;;5.15;2.42;;;-0.60;99.90;;;;;;4888523;28;20094;-84
2021/01/31 11:06:25;;;;;;;6.32;2.30;;;-0.70;99.90;;;;;;4886203;28;20553;-84
2021/01/31 11:08:49;;;;;;;6.85;2.60;;;-0.70;99.90;;;;;;4888494;28;20484;-83
2021/01/31 11:11:11;;;;;;;7.05;2.55;;;-0.60;99.90;;;;;;4888873;28;20102;-83
2021/01/31 11:13:34;;;;;;;5.68;2.88;;;-0.40;99.90;;;;;;4889600;28;20493;-82
2021/01/31 11:15:57;;;;;;;5.85;2.55;;;-0.40;99.90;;;;;;4888723;28;20091;-83
2021/01/31 11:18:21;;;;;;;8.18;3.10;;;-0.30;99.90;;;;;;4888815;28;20573;-82
2021/01/31 11:20:44;;;;;;;6.50;2.92;;;-0.30;99.90;;;;;;4881705;28;20144;-84
2021/01/31 11:23:07;;;;;;;8.32;3.70;;;-0.20;99.90;;;;;;4889407;28;20094;-84
2021/01/31 11:25:31;;;;;;;5.50;2.72;;;;;;;;;;4889181;28;20148;-83
2021/01/31 11:27:53;;;;;;;7.32;3.38;;;-0.30;99.90;;;;;;4889594;28;20151;-82
2021/01/31 11:30:17;;;;;;;8.90;3.63;;;-0.40;99.90;;;;;;4888640;28;20449;-83
2021/01/31 11:32:40;;;;;;;8.00;3.88;;;-0.80;99.90;;;;;;4888540;28;20545;-83
2021/01/31 11:35:03;;;;;;;7.85;3.65;;;-0.50;99.90;;;;;;4889431;28;20098;-82
2021/01/31 11:37:25;;;;;;;7.10;3.97;;;-0.50;99.90;;;;;;4884332;28;20100;-83
2021/01/31 11:39:48;;;;;;;13.10;3.65;;;-0.50;99.90;;;;;;4887088;28;20120;-84
2021/01/31 11:42:12;;;;;;;17.45;5.13;;;;;;;;;;4894279;28;20102;-82
2021/01/31 11:44:35;;;;;;;14.35;5.03;;;-0.50;99.90;;;;;;4887911;28;20086;-82
2021/01/31 11:46:57;;;;;;;14.05;4.70;;;-0.60;99.90;;;;;;4888679;28;20604;-82
2021/01/31 11:49:20;;;;;;;9.70;4.25;;;-0.60;99.90;;;;;;4889537;28;20103;-82
2021/01/31 11:51:43;;;;;;;13.32;5.13;;;-0.70;99.90;;;;;;4888786;28;20566;-82
2021/01/31 11:54:06;;;;;;;10.48;4.07;;;-0.70;99.90;;;;;;4880140;28;20106;-84
2021/01/31 11:56:28;;;;;;;11.75;5.03;;;-0.60;99.90;;;;;;4881761;28;20096;-83
2021/01/31 11:58:52;;;;;;;14.00;4.50;;;-0.50;99.90;;;;;;4888189;28;20505;-82
2021/01/31 12:01:15;;;;;;;12.88;4.63;;;-0.50;99.90;;;;;;4887691;28;20090;-82
2021/01/31 12:03:37;;;;;;;10.57;4.13;;;-0.40;99.90;;;;;;4889849;28;20102;-83
2021/01/31 12:06:00;;;;;;;10.88;4.55;;;;;;;;;;4888882;28;20094;-83
2021/01/31 12:08:23;;;;;;;12.07;4.75;;;-0.30;99.90;;;;;;4882540;28;20583;-82
2021/01/31 12:10:45;;;;;;;13.27;4.22;;;-0.30;99.90;;;;;;4886965;28;20106;-82
2021/01/31 12:13:08;;;;;;;10.50;4.32;;;-0.20;99.90;;;;;;4884211;28;20587;-82
2021/01/31 12:15:32;;;;;;;12.63;4.45;;;-0.30;99.90;;;;;;4880276;28;20094;-84
2021/01/31 12:17:54;;;;;;;10.82;4.22;;;-0.20;99.90;;;;;;4888913;28;20103;-83
2021/01/31 12:20:18;;;;;;;11.35;4.47;;;-0.20;99.90;;;;;;4888084;28;20098;-83
2021/01/31 12:22:40;;;;;;;10.50;4.53;;;-0.10;99.90;;;;;;4890172;28;20090;-84
2021/01/31 12:25:05;;;;;;;12.73;4.30;;;0.00;99.90;;;;;;4888671;28;20103;-82
2021/01/31 12:27:29;;;;;;;10.02;4.15;;;0.10;99.90;;;;;;4875653;28;20116;-83
2021/01/31 12:29:54;;;;;;;11.85;4.72;;;0.10;99.90;;;;;;4888258;28;20565;-82
2021/01/31 12:32:17;;;;;;;12.23;5.50;;;;;;;;;;4887628;28;20504;-84
2021/01/31 12:34:40;;;;;;;10.55;4.75;;;0.10;99.90;;;;;;4886423;28;20099;-82
2021/01/31 12:37:03;;;;;;;11.20;4.72;;;0.10;99.90;;;;;;4888129;28;20091;-82
2021/01/31 12:39:25;;;;;;;9.02;4.40;;;0.10;99.90;;;;;;4888682;28;20133;-82
2021/01/31 12:41:48;;;;;;;11.00;4.57;;;0.10;99.90;;;;;;4886401;28;20104;-79
2021/01/31 12:44:10;;;;;;;9.93;4.25;;;0.20;99.90;;;;;;4888529;28;20180;-79
2021/01/31 12:46:33;;;;;;;10.90;4.60;;;0.20;99.90;;;;;;4887998;28;20461;-80
2021/01/31 12:48:56;;;;;;;9.00;4.65;;;0.20;99.90;;;;;;4886070;28;20099;-80
2021/01/31 12:51:20;;;;;;;8.20;4.07;;;0.30;99.90;;;;;;4888609;28;20097;-81
2021/01/31 12:53:42;;;;;;;11.38;4.53;;;0.30;99.90;;;;;;4875178;28;20461;-80
2021/01/31 12:56:06;;;;;;;9.65;3.67;;;0.20;99.90;;;;;;4890077;28;20147;-81
2021/01/31 12:58:28;;;;;;;9.85;3.38;;;0.20;99.90;;;;;;4878697;28;20098;-81
2021/01/31 13:00:51;;;;;;;8.90;4.20;;;0.20;99.90;;;;;;4889080;28;20092;-82
2021/01/31 13:03:14;;;;;;;9.10;3.90;;;0.10;99.90;;;;;;4887435;28;20110;-82
2021/01/31 13:05:38;;;;;;;10.23;4.25;;;0.20;99.90;;;;;;4887900;28;20445;-80
2021/01/31 13:08:02;;;;;;;13.38;4.88;;;0.30;99.90;;;;;;4879055;28;20436;-81
2021/01/31 13:10:25;;;;;;;11.27;4.32;;;0.20;99.90;;;;;;4881793;28;20595;-80
2021/01/31 13:12:48;;;;;;;9.82;4.18;;;0.10;99.90;;;;;;4883836;28;20140;-80
2021/01/31 13:15:12;;;;;;;12.77;4.38;;;0.10;99.90;;;;;;4888451;28;20107;-80
2021/01/31 13:17:35;;;;;;;11.55;4.82;;;0.10;99.90;;;;;;4885381;28;20117;-83
2021/01/31 13:19:58;;;;;;;13.85;4.70;;;0.10;99.90;;;;;;4883611;28;20109;-80
2021/01/31 13:22:21;;;;;;;9.90;4.45;;;0.10;99.90;;;;;;4877015;28;20094;-81
2021/01/31 13:24:45;;;;;;;9.90;3.80;;;0.10;99.90;;;;;;4882772;28;20098;-83
2021/01/31 13:27:07;;;;;;;9.65;3.90;;;0.10;99.90;;;;;;4883627;28;20086;-81
2021/01/31 13:29:30;;;;;;;10.88;4.03;;;0.20;99.90;;;;;;4885804;28;20101;-81
2021/01/31 13:31:52;;;;;;;9.30;4.28;;;0.30;99.90;;;;;;4886315;28;20097;-80
2021/01/31 13:34:16;;;;;;;9.10;4.50;;;0.30;99.90;;;;;;4883704;28;20108;-83
2021/01/31 13:36:38;;;;;;;12.35;3.95;;;-0.60;99.90;;;;;;4885596;28;20085;-80